Time;durP1;ratioP1;P1;durP2;ratioP2;P2;SDS_P1;SDS_P2;PMS_P1;PMS_P2;Temp;Humidity;BMP_temperature;BMP_pressure;BME280_temperature;BME280_humidity;BME280_pressure;Samples;Min_cycle;Max_cycle;Signal;HPM_P1;HPM_P2
2021/09/15 00:00:19;;;;;;;6.70;4.85;;;16.70;87.00;;;;;;5023038;28;20052;-67
2021/09/15 00:02:45;;;;;;;8.35;5.63;;;16.70;87.40;;;;;;5021563;28;20392;-66
2021/09/15 00:05:10;;;;;;;8.63;5.82;;;16.70;86.90;;;;;;5025952;28;20021;-65
2021/09/15 00:07:36;;;;;;;9.50;6.15;;;16.70;87.10;;;;;;5023172;28;20295;-66
2021/09/15 00:10:03;;;;;;;7.82;5.47;;;16.70;87.30;;;;;;5025609;28;20091;-67
2021/09/15 00:12:28;;;;;;;7.47;5.15;;;16.70;86.80;;;;;;5017817;28;20425;-67
2021/09/15 00:14:54;;;;;;;10.38;5.72;;;16.80;86.80;;;;;;5022715;28;20100;-66
2021/09/15 00:17:21;;;;;;;11.30;5.97;;;16.80;86.50;;;;;;5022345;28;20052;-66
2021/09/15 00:19:46;;;;;;;8.45;6.03;;;16.70;86.70;;;;;;5023000;28;20348;-66
2021/09/15 00:22:12;;;;;;;10.45;5.72;;;16.70;86.70;;;;;;5016411;28;20093;-66
2021/09/15 00:24:38;;;;;;;7.88;5.72;;;16.80;86.30;;;;;;5020357;28;20261;-66
2021/09/15 00:27:03;;;;;;;9.68;5.75;;;16.80;86.30;;;;;;5022800;28;20044;-65
2021/09/15 00:29:29;;;;;;;8.20;5.10;;;16.80;86.40;;;;;;5023413;28;20032;-67
2021/09/15 00:31:55;;;;;;;8.18;5.68;;;16.80;86.40;;;;;;5022563;28;20033;-65
2021/09/15 00:34:21;;;;;;;10.05;5.78;;;16.80;86.70;;;;;;5023119;28;20030;-66
2021/09/15 00:36:46;;;;;;;12.38;5.55;;;16.80;86.80;;;;;;5022280;28;20510;-66
2021/09/15 00:39:12;;;;;;;9.82;6.22;;;16.80;86.80;;;;;;5025609;28;20023;-66
2021/09/15 00:41:37;;;;;;;8.35;5.80;;;16.70;86.90;;;;;;5020024;28;20037;-66
2021/09/15 00:44:08;;;;;;;9.43;5.32;;;16.70;87.20;;;;;;5019223;28;20170;-66
2021/09/15 00:46:35;;;;;;;8.43;6.00;;;16.70;87.20;;;;;;5024724;28;20079;-66
2021/09/15 00:49:00;;;;;;;9.65;6.03;;;16.70;86.80;;;;;;5022003;28;20034;-66
2021/09/15 00:51:27;;;;;;;9.85;6.10;;;16.70;86.80;;;;;;5024907;28;20570;-65
2021/09/15 00:53:53;;;;;;;7.10;5.53;;;16.70;86.90;;;;;;5018682;28;20033;-66
2021/09/15 00:56:20;;;;;;;7.25;5.75;;;16.80;86.80;;;;;;5024144;28;20069;-66
2021/09/15 00:58:46;;;;;;;9.88;6.18;;;16.80;86.70;;;;;;5021450;28;20653;-66
2021/09/15 01:01:11;;;;;;;8.75;5.95;;;16.80;87.00;;;;;;5025626;28;20025;-65
2021/09/15 01:03:38;;;;;;;8.40;5.90;;;16.80;86.60;;;;;;5020676;28;20120;-66
2021/09/15 01:06:04;;;;;;;9.35;5.90;;;16.80;86.80;;;;;;5019195;28;20033;-67
2021/09/15 01:08:31;;;;;;;7.72;6.18;;;16.80;86.60;;;;;;5022956;28;20106;-65
2021/09/15 01:10:58;;;;;;;8.40;5.78;;;16.80;86.60;;;;;;5023471;28;20042;-66
2021/09/15 01:13:25;;;;;;;7.90;5.57;;;16.80;86.80;;;;;;5016543;28;20021;-66
2021/09/15 01:15:51;;;;;;;10.05;6.32;;;16.80;86.70;;;;;;5021695;28;20057;-66
2021/09/15 01:18:18;;;;;;;8.13;6.05;;;16.80;86.80;;;;;;5022795;28;20459;-64
2021/09/15 01:20:44;;;;;;;10.48;6.40;;;16.80;86.60;;;;;;5024596;28;20436;-66
2021/09/15 01:23:11;;;;;;;10.25;6.10;;;16.80;86.70;;;;;;5021257;28;20397;-66
2021/09/15 01:25:36;;;;;;;12.73;6.47;;;16.80;87.00;;;;;;5023290;28;20216;-67
2021/09/15 01:28:03;;;;;;;7.57;5.95;;;16.80;87.10;;;;;;5021015;28;20052;-66
2021/09/15 01:30:29;;;;;;;9.00;6.07;;;16.80;87.00;;;;;;5020640;28;20032;-66
2021/09/15 01:32:55;;;;;;;7.82;5.60;;;16.80;87.00;;;;;;5022982;28;20041;-65
2021/09/15 01:35:20;;;;;;;8.88;5.93;;;16.80;87.40;;;;;;5023009;28;20064;-66
2021/09/15 01:37:46;;;;;;;10.88;6.85;;;16.70;87.80;;;;;;5021737;28;20042;-66
2021/09/15 01:40:13;;;;;;;10.35;6.97;;;16.70;88.00;;;;;;5020630;28;20032;-66
2021/09/15 01:42:39;;;;;;;12.15;6.70;;;16.60;88.60;;;;;;5021919;28;20045;-67
2021/09/15 01:45:07;;;;;;;12.93;7.32;;;16.50;89.20;;;;;;5021037;28;20036;-65
2021/09/15 01:47:32;;;;;;;10.60;7.13;;;16.50;89.40;;;;;;5015271;28;20036;-66
2021/09/15 01:49:58;;;;;;;9.88;6.90;;;16.50;89.80;;;;;;5025219;28;20112;-65
2021/09/15 01:52:24;;;;;;;14.65;7.43;;;16.40;90.00;;;;;;5019038;28;20431;-66
2021/09/15 01:54:50;;;;;;;10.45;7.82;;;16.40;90.10;;;;;;5022263;28;20029;-67
2021/09/15 01:57:16;;;;;;;10.88;7.13;;;16.30;90.30;;;;;;5022909;28;20064;-66
2021/09/15 01:59:42;;;;;;;10.25;7.40;;;16.30;90.20;;;;;;5023864;28;20025;-67
2021/09/15 02:02:11;;;;;;;9.07;7.28;;;16.30;90.90;;;;;;5019609;28;20030;-66
2021/09/15 02:04:37;;;;;;;8.85;7.43;;;16.20;90.70;;;;;;5023880;28;20484;-66
2021/09/15 02:07:04;;;;;;;10.40;7.75;;;16.30;90.70;;;;;;5022288;28;20068;-67
2021/09/15 02:09:29;;;;;;;11.35;8.05;;;16.20;91.10;;;;;;5022650;28;20037;-67
2021/09/15 02:11:55;;;;;;;9.70;8.20;;;16.20;91.60;;;;;;5022417;28;20395;-66
2021/09/15 02:14:21;;;;;;;11.70;8.40;;;16.10;91.60;;;;;;5019348;28;20036;-66
2021/09/15 02:16:46;;;;;;;12.02;8.15;;;16.10;91.50;;;;;;5022109;28;20030;-66
2021/09/15 02:19:12;;;;;;;12.10;8.43;;;16.10;91.70;;;;;;5020081;28;20017;-67
2021/09/15 02:21:38;;;;;;;12.95;8.48;;;16.10;91.80;;;;;;5020086;28;20033;-67
2021/09/15 02:24:04;;;;;;;16.08;9.18;;;16.10;91.80;;;;;;5021929;28;20140;-67
2021/09/15 02:26:31;;;;;;;12.15;8.15;;;16.10;91.70;;;;;;5022686;28;21636;-67
2021/09/15 02:28:57;;;;;;;11.73;8.45;;;16.10;92.10;;;;;;5019749;28;20065;-66
2021/09/15 02:31:23;;;;;;;14.35;9.00;;;16.00;92.40;;;;;;5021575;28;20160;-65
2021/09/15 02:33:49;;;;;;;13.07;8.63;;;16.00;92.60;;;;;;5021464;28;20030;-66
2021/09/15 02:36:15;;;;;;;11.52;9.25;;;16.00;92.90;;;;;;5025002;28;20309;-66
2021/09/15 02:38:41;;;;;;;12.50;9.15;;;16.00;92.90;;;;;;5022110;28;20026;-67
2021/09/15 02:41:07;;;;;;;11.95;9.00;;;16.00;93.20;;;;;;5023853;28;20032;-66
2021/09/15 02:43:33;;;;;;;13.30;9.35;;;15.90;93.10;;;;;;5022140;28;20030;-66
2021/09/15 02:45:59;;;;;;;11.70;9.88;;;16.00;93.60;;;;;;5019135;28;20470;-66
2021/09/15 02:48:25;;;;;;;12.77;10.00;;;15.90;93.20;;;;;;5018018;28;20037;-66
2021/09/15 02:50:50;;;;;;;13.02;9.75;;;15.90;93.60;;;;;;5026561;28;20061;-67
2021/09/15 02:53:16;;;;;;;14.30;10.73;;;15.80;93.60;;;;;;5021554;28;20060;-67
2021/09/15 02:55:41;;;;;;;16.90;10.00;;;15.80;93.90;;;;;;5025199;28;20378;-67
2021/09/15 02:58:07;;;;;;;13.15;9.55;;;15.80;94.30;;;;;;5022919;28;20033;-66
2021/09/15 03:00:33;;;;;;;14.55;9.93;;;15.80;94.40;;;;;;5025600;28;20025;-67
2021/09/15 03:02:59;;;;;;;13.57;9.68;;;15.80;94.00;;;;;;5025792;28;20552;-66
2021/09/15 03:05:25;;;;;;;14.95;10.18;;;15.70;94.10;;;;;;5018397;28;20500;-67
2021/09/15 03:07:50;;;;;;;15.50;10.43;;;15.70;94.30;;;;;;5024184;28;20022;-67
2021/09/15 03:10:16;;;;;;;15.02;10.88;;;15.70;94.30;;;;;;5024868;28;20029;-66
2021/09/15 03:12:41;;;;;;;14.20;10.50;;;15.70;94.30;;;;;;5026201;28;20033;-66
2021/09/15 03:15:07;;;;;;;15.95;10.98;;;15.70;94.40;;;;;;5021950;28;20543;-67
2021/09/15 03:17:33;;;;;;;15.43;10.40;;;15.70;94.40;;;;;;5022399;28;20041;-66
2021/09/15 03:19:58;;;;;;;18.60;10.73;;;15.70;94.30;;;;;;5020635;28;20061;-65
2021/09/15 03:22:24;;;;;;;13.73;9.80;;;15.70;94.30;;;;;;5023980;28;20328;-67
2021/09/15 03:24:50;;;;;;;16.77;10.35;;;15.70;94.40;;;;;;5027005;28;20524;-67
2021/09/15 03:27:15;;;;;;;11.88;10.07;;;15.60;94.30;;;;;;5023291;28;20021;-66
2021/09/15 03:29:41;;;;;;;14.77;10.13;;;15.70;94.10;;;;;;5023474;28;20396;-66
2021/09/15 03:32:06;;;;;;;11.35;10.02;;;15.70;94.10;;;;;;5023324;28;20497;-66
2021/09/15 03:34:32;;;;;;;15.20;10.13;;;15.60;94.30;;;;;;5026229;28;20045;-65
2021/09/15 03:36:57;;;;;;;15.60;10.65;;;15.70;94.40;;;;;;5025111;28;20106;-65
2021/09/15 03:39:23;;;;;;;17.75;11.88;;;15.70;94.50;;;;;;5023546;28;20568;-67
2021/09/15 03:41:49;;;;;;;13.23;10.75;;;15.70;94.60;;;;;;5022576;28;20029;-67
2021/09/15 03:44:15;;;;;;;13.15;10.65;;;15.60;94.90;;;;;;5026643;28;20048;-67
2021/09/15 03:46:40;;;;;;;15.25;11.48;;;15.50;95.20;;;;;;5017136;28;20037;-66
2021/09/15 03:49:06;;;;;;;18.15;11.55;;;15.60;95.40;;;;;;5024589;28;20413;-67
2021/09/15 03:51:32;;;;;;;16.48;11.70;;;15.50;95.40;;;;;;5022720;28;20106;-67
2021/09/15 03:53:58;;;;;;;15.55;11.88;;;15.50;95.60;;;;;;5023843;28;20025;-67
2021/09/15 03:56:24;;;;;;;13.10;10.90;;;15.40;95.70;;;;;;5025993;28;20021;-67
2021/09/15 03:58:50;;;;;;;16.08;12.75;;;15.40;95.70;;;;;;5024027;28;20615;-67
2021/09/15 04:01:15;;;;;;;16.67;11.75;;;15.40;95.80;;;;;;5023612;28;20125;-65
2021/09/15 04:03:41;;;;;;;15.73;12.02;;;15.40;95.70;;;;;;5024186;28;20122;-67
2021/09/15 04:06:07;;;;;;;16.15;12.38;;;15.30;95.80;;;;;;5020120;28;20033;-67
2021/09/15 04:08:33;;;;;;;16.05;12.93;;;15.30;96.00;;;;;;5023666;28;20482;-67
2021/09/15 04:10:59;;;;;;;16.02;12.30;;;15.40;96.10;;;;;;5023500;28;20029;-66
2021/09/15 04:13:25;;;;;;;17.52;13.73;;;15.30;96.00;;;;;;5022536;28;20427;-67
2021/09/15 04:15:51;;;;;;;15.07;12.95;;;15.40;96.00;;;;;;5025024;28;20021;-67
2021/09/15 04:18:16;;;;;;;16.08;13.35;;;15.30;96.10;;;;;;5024460;28;20029;-66
2021/09/15 04:20:43;;;;;;;15.73;12.48;;;15.40;96.10;;;;;;5025179;28;20024;-64
2021/09/15 04:23:19;;;;;;;24.20;12.23;;;15.30;96.10;;;;;;5022719;28;20036;-64
2021/09/15 04:33:38;;;;;;;19.40;12.50;;;15.30;96.10;;;;;;5026824;28;20222;-63
2021/09/15 04:36:04;;;;;;;15.85;12.23;;;15.30;96.20;;;;;;5024771;28;20400;-60
2021/09/15 04:38:29;;;;;;;16.13;12.43;;;15.30;96.10;;;;;;5024931;28;20037;-62
2021/09/15 04:40:55;;;;;;;15.50;12.13;;;15.30;96.00;;;;;;5025530;28;20029;-62
2021/09/15 04:43:21;;;;;;;15.68;12.55;;;15.30;96.10;;;;;;5024549;28;20546;-62
2021/09/15 04:45:46;;;;;;;14.73;11.82;;;15.30;96.20;;;;;;5024535;28;20033;-62
2021/09/15 04:48:12;;;;;;;15.85;12.38;;;15.30;96.20;;;;;;5020967;28;20053;-62
2021/09/15 04:50:37;;;;;;;15.80;12.48;;;15.20;96.10;;;;;;5025085;28;20068;-62
2021/09/15 04:53:03;;;;;;;17.13;11.50;;;15.20;96.10;;;;;;5016767;28;20034;-61
2021/09/15 04:55:31;;;;;;;16.58;11.93;;;15.20;96.10;;;;;;5021568;28;20469;-63
2021/09/15 04:57:57;;;;;;;15.02;12.02;;;15.20;96.00;;;;;;5021622;28;20040;-63
2021/09/15 05:00:23;;;;;;;13.32;11.50;;;15.20;96.10;;;;;;5023178;28;20026;-61
2021/09/15 05:02:49;;;;;;;14.75;11.93;;;15.20;96.00;;;;;;5016665;28;20018;-63
2021/09/15 05:05:14;;;;;;;14.02;12.00;;;15.20;96.10;;;;;;5024162;28;20091;-63
2021/09/15 05:07:40;;;;;;;17.30;11.85;;;15.20;96.10;;;;;;5023148;28;20040;-61
2021/09/15 05:10:06;;;;;;;13.85;11.98;;;15.20;96.10;;;;;;5019773;28;20038;-60
2021/09/15 05:12:32;;;;;;;14.13;11.68;;;15.20;96.20;;;;;;5016718;28;20060;-60
2021/09/15 05:14:58;;;;;;;18.48;12.10;;;15.20;96.20;;;;;;5019944;28;20018;-62
2021/09/15 05:17:24;;;;;;;21.65;11.90;;;15.20;96.20;;;;;;5021762;28;20504;-63
2021/09/15 05:19:50;;;;;;;17.55;12.32;;;15.20;96.10;;;;;;5022921;28;20037;-63
2021/09/15 05:22:15;;;;;;;17.13;12.35;;;15.20;96.10;;;;;;5020017;28;20029;-62
2021/09/15 05:24:41;;;;;;;15.90;11.65;;;15.20;96.10;;;;;;5023544;28;20038;-62
2021/09/15 05:27:07;;;;;;;16.00;10.75;;;15.20;96.00;;;;;;5023130;28;20425;-60
2021/09/15 05:29:32;;;;;;;14.35;11.93;;;15.20;95.90;;;;;;5024649;28;20112;-62
2021/09/15 05:31:58;;;;;;;17.48;12.00;;;15.20;95.90;;;;;;5021486;28;20456;-61
2021/09/15 05:34:24;;;;;;;14.43;11.80;;;15.30;95.90;;;;;;5025239;28;20516;-62
2021/09/15 05:36:49;;;;;;;14.52;10.93;;;15.30;95.80;;;;;;5023151;28;20159;-63
2021/09/15 05:39:15;;;;;;;16.08;12.07;;;15.30;95.80;;;;;;5023662;28;20021;-63
2021/09/15 05:41:40;;;;;;;13.65;11.43;;;15.30;95.80;;;;;;5020667;28;20029;-64
2021/09/15 05:44:06;;;;;;;15.10;11.00;;;15.30;95.80;;;;;;5020992;28;20148;-64
2021/09/15 05:46:32;;;;;;;17.45;12.18;;;15.40;95.70;;;;;;5021234;28;20030;-64
2021/09/15 05:48:57;;;;;;;14.82;11.52;;;15.40;95.70;;;;;;5024339;28;20029;-63
2021/09/15 05:51:23;;;;;;;14.10;11.27;;;15.40;95.60;;;;;;5021770;28;20033;-64
2021/09/15 05:53:49;;;;;;;13.50;10.57;;;15.40;95.60;;;;;;5022902;28;20480;-64
2021/09/15 05:56:14;;;;;;;15.00;10.15;;;15.50;95.60;;;;;;5024980;28;20018;-65
2021/09/15 05:58:40;;;;;;;12.80;10.82;;;15.50;95.30;;;;;;5019625;28;20473;-63
2021/09/15 06:01:06;;;;;;;13.25;11.27;;;15.50;95.30;;;;;;5024810;28;20030;-64
2021/09/15 06:03:32;;;;;;;12.52;10.15;;;15.50;95.30;;;;;;5021723;28;20029;-64
2021/09/15 06:05:58;;;;;;;13.05;10.70;;;15.60;95.40;;;;;;5022847;28;20477;-65
2021/09/15 06:08:24;;;;;;;13.57;10.30;;;15.60;95.30;;;;;;5021142;28;20040;-64
2021/09/15 06:10:49;;;;;;;12.95;10.52;;;15.60;95.30;;;;;;5020206;28;20025;-65
2021/09/15 06:13:16;;;;;;;13.88;10.35;;;15.60;94.90;;;;;;5017554;28;20112;-64
2021/09/15 06:15:42;;;;;;;15.70;10.63;;;15.70;95.00;;;;;;5019526;28;20036;-65
2021/09/15 06:18:07;;;;;;;21.05;10.48;;;15.70;95.20;;;;;;5018494;28;20032;-63
2021/09/15 06:20:33;;;;;;;14.57;11.13;;;15.70;95.10;;;;;;5022985;28;20030;-64
2021/09/15 06:22:59;;;;;;;12.10;9.85;;;15.80;95.00;;;;;;5023372;28;20052;-65
2021/09/15 06:25:26;;;;;;;13.68;10.30;;;15.90;95.00;;;;;;5028817;28;20033;-65
2021/09/15 06:27:54;;;;;;;13.23;9.88;;;15.90;94.50;;;;;;5006092;28;20044;-63
2021/09/15 06:30:20;;;;;;;12.50;9.65;;;16.00;94.50;;;;;;5025568;28;20032;-65
2021/09/15 06:32:45;;;;;;;11.25;9.38;;;16.00;94.10;;;;;;5027334;28;20034;-64
2021/09/15 06:35:11;;;;;;;15.05;9.48;;;16.00;93.90;;;;;;5026805;28;20069;-64
2021/09/15 06:37:38;;;;;;;14.27;9.48;;;16.00;94.30;;;;;;5024972;28;20037;-64
2021/09/15 06:40:04;;;;;;;10.65;9.32;;;16.00;94.30;;;;;;5022452;28;20301;-64
2021/09/15 06:42:30;;;;;;;12.07;9.57;;;16.00;94.20;;;;;;5019037;28;20025;-65
2021/09/15 06:44:55;;;;;;;13.05;9.02;;;16.10;94.20;;;;;;5024639;28;20079;-63
2021/09/15 06:47:22;;;;;;;11.93;9.35;;;16.10;94.50;;;;;;5025460;28;20080;-64
2021/09/15 06:49:47;;;;;;;15.93;9.43;;;16.10;94.30;;;;;;5024697;28;20024;-65
2021/09/15 06:52:13;;;;;;;15.43;10.15;;;16.10;94.40;;;;;;5024419;28;20022;-65
2021/09/15 06:54:39;;;;;;;12.88;10.13;;;16.10;94.20;;;;;;5022701;28;20034;-64
2021/09/15 06:57:05;;;;;;;13.13;9.93;;;16.10;94.40;;;;;;5023551;28;20054;-65
2021/09/15 06:59:31;;;;;;;14.68;10.43;;;16.10;94.70;;;;;;5026276;28;20535;-64
2021/09/15 07:01:56;;;;;;;14.77;10.23;;;16.10;94.80;;;;;;5024782;28;20072;-64
2021/09/15 07:04:22;;;;;;;15.15;9.88;;;16.00;94.80;;;;;;5016433;28;20057;-64
2021/09/15 07:06:47;;;;;;;13.18;10.80;;;16.10;94.90;;;;;;5024049;28;20037;-63
2021/09/15 07:09:13;;;;;;;15.23;10.35;;;16.00;95.00;;;;;;5025066;28;20025;-64
2021/09/15 07:11:39;;;;;;;13.82;10.18;;;16.10;95.10;;;;;;5024952;28;20108;-64
2021/09/15 07:14:04;;;;;;;12.60;10.43;;;16.10;95.10;;;;;;5020300;28;20029;-64
2021/09/15 07:16:33;;;;;;;15.70;11.13;;;16.10;95.00;;;;;;5028103;28;20104;-65
2021/09/15 07:19:00;;;;;;;14.07;11.23;;;16.10;95.20;;;;;;5025072;28;20476;-64
2021/09/15 07:21:25;;;;;;;15.20;10.50;;;16.10;95.30;;;;;;5024755;28;20103;-63
2021/09/15 07:23:51;;;;;;;13.55;11.10;;;16.20;95.20;;;;;;5023466;28;20037;-65
2021/09/15 07:26:17;;;;;;;12.52;10.32;;;16.20;95.00;;;;;;5019673;28;20030;-63
2021/09/15 07:28:43;;;;;;;13.45;10.65;;;16.20;94.90;;;;;;5018313;28;20044;-64
2021/09/15 07:31:08;;;;;;;13.85;11.27;;;16.30;95.00;;;;;;5023893;28;20113;-65
2021/09/15 07:33:34;;;;;;;13.85;10.48;;;16.20;95.00;;;;;;5024821;28;20040;-64
2021/09/15 07:36:04;;;;;;;14.48;10.60;;;16.30;95.10;;;;;;5026136;28;20029;-63
2021/09/15 07:38:31;;;;;;;16.77;10.47;;;16.30;95.10;;;;;;5021402;28;20484;-64
2021/09/15 07:40:57;;;;;;;16.13;10.70;;;16.40;95.20;;;;;;5014929;28;20794;-64
2021/09/15 07:43:23;;;;;;;15.25;11.02;;;16.40;95.00;;;;;;5016919;28;20036;-64
2021/09/15 07:45:49;;;;;;;15.73;11.60;;;16.50;94.80;;;;;;5021230;28;20108;-64
2021/09/15 07:48:14;;;;;;;13.70;12.18;;;16.50;94.70;;;;;;5018666;28;20153;-64
2021/09/15 07:50:40;;;;;;;14.68;11.57;;;16.60;94.70;;;;;;5021102;28;20030;-63
2021/09/15 07:53:06;;;;;;;14.82;11.93;;;16.60;94.70;;;;;;5012195;28;20030;-64
2021/09/15 07:55:31;;;;;;;14.55;11.30;;;16.70;94.70;;;;;;5021428;28;20883;-65
2021/09/15 07:57:57;;;;;;;14.63;12.05;;;16.80;94.80;;;;;;5021460;28;20036;-64
2021/09/15 08:00:23;;;;;;;12.55;11.05;;;16.90;94.50;;;;;;5023341;28;20079;-64
2021/09/15 08:02:49;;;;;;;13.15;10.73;;;17.00;94.50;;;;;;5018866;28;20563;-65
2021/09/15 08:05:15;;;;;;;13.18;10.65;;;17.00;93.80;;;;;;5025871;28;20056;-64
2021/09/15 08:07:41;;;;;;;13.60;11.38;;;17.10;93.60;;;;;;5021003;28;20600;-62
2021/09/15 08:10:08;;;;;;;13.82;10.55;;;17.10;93.70;;;;;;5026118;28;20064;-64
2021/09/15 08:12:33;;;;;;;14.50;10.75;;;17.30;93.70;;;;;;5021883;28;20029;-63
2021/09/15 08:14:59;;;;;;;12.68;10.23;;;17.30;93.30;;;;;;5015870;28;20304;-64
2021/09/15 08:17:25;;;;;;;12.40;10.05;;;17.40;93.30;;;;;;5016110;28;20029;-62
2021/09/15 08:19:50;;;;;;;15.43;11.15;;;17.40;92.90;;;;;;5024574;28;20087;-64
2021/09/15 08:22:16;;;;;;;13.75;10.80;;;17.50;92.70;;;;;;5023484;28;20025;-64
2021/09/15 08:24:42;;;;;;;16.70;11.23;;;17.50;92.80;;;;;;5025440;28;20489;-66
2021/09/15 08:27:08;;;;;;;13.57;10.77;;;17.60;93.50;;;;;;5022399;28;20362;-64
2021/09/15 08:29:35;;;;;;;12.50;10.80;;;17.60;93.50;;;;;;5023369;28;20033;-64
2021/09/15 08:32:00;;;;;;;14.07;9.25;;;17.60;93.20;;;;;;5024625;28;20051;-72
2021/09/15 08:34:26;;;;;;;13.65;10.18;;;17.50;92.80;;;;;;5020110;28;20033;-65
2021/09/15 08:36:52;;;;;;;13.07;10.13;;;17.60;92.90;;;;;;5019849;28;20072;-64
2021/09/15 08:39:17;;;;;;;13.93;10.45;;;17.50;93.00;;;;;;5011820;28;20021;-64
2021/09/15 08:41:44;;;;;;;15.43;9.68;;;17.60;93.50;;;;;;5025793;28;20362;-64
2021/09/15 08:44:10;;;;;;;14.13;10.05;;;17.60;93.60;;;;;;5023911;28;20033;-64
2021/09/15 08:46:36;;;;;;;12.73;10.35;;;17.60;93.80;;;;;;5026694;28;20040;-62
2021/09/15 08:49:02;;;;;;;14.73;10.52;;;17.60;94.00;;;;;;5021248;28;20515;-63
2021/09/15 08:51:28;;;;;;;17.45;11.00;;;17.70;94.20;;;;;;5024771;28;20029;-60
2021/09/15 08:53:55;;;;;;;15.23;11.55;;;17.50;94.10;;;;;;5019425;28;20200;-63
2021/09/15 08:56:21;;;;;;;15.45;11.30;;;17.60;94.50;;;;;;5019003;28;20112;-62
2021/09/15 08:58:47;;;;;;;19.48;11.95;;;17.50;94.90;;;;;;5016558;28;20021;-62
2021/09/15 09:01:18;;;;;;;12.95;11.45;;;17.50;94.90;;;;;;5023521;28;20025;-64
2021/09/15 09:03:45;;;;;;;14.43;11.55;;;17.50;95.10;;;;;;5023308;28;20037;-67
2021/09/15 09:06:13;;;;;;;16.42;11.88;;;17.60;95.30;;;;;;5020682;28;20034;-65
2021/09/15 09:08:44;;;;;;;13.73;10.98;;;17.60;95.40;;;;;;5020826;28;20033;-63
2021/09/15 09:11:14;;;;;;;18.08;11.52;;;17.50;95.30;;;;;;5024252;28;20040;-62
2021/09/15 09:13:55;;;;;;;13.70;12.18;;;17.60;95.50;;;;;;5022069;28;20147;-62
2021/09/15 09:16:36;;;;;;;13.63;11.52;;;17.60;95.70;;;;;;5022070;28;20481;-63
2021/09/15 09:19:08;;;;;;;15.55;10.98;;;17.50;95.40;;;;;;5018229;28;20061;-63
2021/09/15 09:21:35;;;;;;;17.35;12.02;;;17.60;95.70;;;;;;5019132;28;20029;-62
2021/09/15 09:24:07;;;;;;;13.35;11.93;;;17.70;95.90;;;;;;5023962;28;20040;-63
2021/09/15 09:27:02;;;;;;;15.75;12.05;;;17.80;96.00;;;;;;5021185;28;20083;-63
2021/09/15 09:29:30;;;;;;;14.65;11.15;;;17.90;96.10;;;;;;5023720;28;20025;-63
2021/09/15 09:32:08;;;;;;;15.15;11.35;;;18.00;95.90;;;;;;5022399;28;20040;-63
2021/09/15 09:34:48;;;;;;;12.85;11.45;;;18.00;95.60;;;;;;5022778;28;20025;-64
2021/09/15 09:37:19;;;;;;;15.98;11.82;;;18.10;95.80;;;;;;5016758;28;20034;-62
2021/09/15 09:39:55;;;;;;;15.05;11.77;;;18.20;95.70;;;;;;5017559;28;20445;-63
2021/09/15 09:42:23;;;;;;;15.80;11.02;;;18.40;95.70;;;;;;5022262;28;20026;-63
2021/09/15 09:45:10;;;;;;;13.93;10.90;;;18.30;95.30;;;;;;5023221;28;20119;-63
2021/09/15 09:47:38;;;;;;;15.80;9.95;;;18.40;95.10;;;;;;5020667;28;20336;-64
2021/09/15 09:50:30;;;;;;;14.35;10.70;;;18.30;94.90;;;;;;5023376;28;20396;-64
2021/09/15 09:53:03;;;;;;;15.82;10.52;;;18.40;95.20;;;;;;5018241;28;20155;-63
2021/09/15 09:55:34;;;;;;;13.65;10.10;;;18.40;95.20;;;;;;5022850;28;20028;-63
2021/09/15 09:58:02;;;;;;;16.90;11.15;;;18.40;95.40;;;;;;5016749;28;20104;-62
2021/09/15 10:00:27;;;;;;;11.75;9.57;;;18.50;95.20;;;;;;5024265;28;20069;-63
2021/09/15 10:02:53;;;;;;;10.80;9.65;;;18.40;94.40;;;;;;5023099;28;20054;-62
2021/09/15 10:05:21;;;;;;;12.90;9.40;;;18.50;95.00;;;;;;5013563;28;20419;-64
2021/09/15 10:07:47;;;;;;;11.73;9.85;;;18.40;94.60;;;;;;5016152;28;20516;-63
2021/09/15 10:10:15;;;;;;;13.93;10.63;;;18.20;94.70;;;;;;5022251;28;20109;-63
2021/09/15 10:12:41;;;;;;;13.50;10.00;;;18.40;95.20;;;;;;5019449;28;20079;-63
2021/09/15 10:15:08;;;;;;;11.32;9.77;;;18.20;95.10;;;;;;5024788;28;20109;-62
2021/09/15 10:17:39;;;;;;;14.30;9.98;;;18.40;95.50;;;;;;5016743;28;20049;-63
2021/09/15 10:20:08;;;;;;;12.35;9.77;;;18.20;95.10;;;;;;5025555;28;20436;-68
2021/09/15 10:22:37;;;;;;;15.10;9.90;;;18.20;95.10;;;;;;5026478;28;20034;-67
2021/09/15 10:25:07;;;;;;;13.57;10.60;;;18.20;95.30;;;;;;5023964;28;20120;-67
2021/09/15 10:28:04;;;;;;;13.02;9.88;;;18.20;95.30;;;;;;5024473;28;20053;-66
2021/09/15 10:30:40;;;;;;;11.10;9.48;;;18.20;95.20;;;;;;5026965;28;20033;-65
2021/09/15 10:33:05;;;;;;;13.23;10.57;;;18.20;95.10;;;;;;5023379;28;20084;-64
2021/09/15 10:35:47;;;;;;;13.48;10.57;;;18.30;95.50;;;;;;5022163;28;20033;-65
2021/09/15 10:38:14;;;;;;;13.32;10.30;;;18.20;95.40;;;;;;5021883;28;20504;-65
2021/09/15 10:40:42;;;;;;;16.05;9.85;;;18.20;95.60;;;;;;5023232;28;20026;-65
2021/09/15 10:43:46;;;;;;;12.80;10.63;;;18.20;95.50;;;;;;5024765;28;20025;-65
2021/09/15 10:46:22;;;;;;;12.60;10.68;;;18.30;95.60;;;;;;4957969;28;20041;-63
2021/09/15 10:49:18;;;;;;;14.85;11.18;;;18.30;95.60;;;;;;4958283;28;20039;-63
2021/09/15 10:51:45;;;;;;;13.95;11.00;;;18.20;95.40;;;;;;5008199;28;20557;-62
2021/09/15 10:54:46;;;;;;;14.10;10.93;;;18.30;95.70;;;;;;5024436;28;20029;-63
2021/09/15 10:57:17;;;;;;;15.63;10.50;;;18.40;95.70;;;;;;5024957;28;20029;-63
2021/09/15 10:59:55;;;;;;;16.15;11.40;;;18.30;95.60;;;;;;5027550;28;20396;-67
2021/09/15 11:02:33;;;;;;;14.68;11.43;;;18.30;95.80;;;;;;5024599;28;20231;-65
2021/09/15 11:05:04;;;;;;;13.63;11.15;;;18.20;95.70;;;;;;5026574;28;20112;-65
2021/09/15 11:07:45;;;;;;;15.60;11.13;;;18.40;95.80;;;;;;5018329;28;20159;-65
2021/09/15 11:10:30;;;;;;;15.82;11.82;;;18.40;95.80;;;;;;5022894;28;20500;-65
2021/09/15 11:12:56;;;;;;;15.93;11.75;;;18.40;95.70;;;;;;5023489;28;20087;-67
2021/09/15 11:15:26;;;;;;;14.63;12.13;;;18.30;95.60;;;;;;5024418;28;20443;-67
2021/09/15 11:17:52;;;;;;;14.40;11.63;;;18.20;95.70;;;;;;5024808;28;20025;-66
2021/09/15 11:20:21;;;;;;;14.70;10.77;;;18.20;95.80;;;;;;5025368;28;20087;-64
2021/09/15 11:22:48;;;;;;;13.45;11.68;;;18.10;95.50;;;;;;5019846;28;20074;-64
2021/09/15 11:25:24;;;;;;;16.13;11.73;;;18.00;95.70;;;;;;5026154;28;20116;-64
2021/09/15 11:28:13;;;;;;;15.15;11.98;;;18.00;96.00;;;;;;5025496;28;20095;-65
2021/09/15 11:30:41;;;;;;;15.00;12.95;;;18.00;96.30;;;;;;5024653;28;20087;-65
2021/09/15 11:33:08;;;;;;;18.80;13.30;;;18.00;96.70;;;;;;5020705;28;21491;-64
2021/09/15 11:35:39;;;;;;;17.42;14.00;;;18.00;96.80;;;;;;5022928;28;20520;-65
2021/09/15 11:38:07;;;;;;;18.70;14.55;;;18.00;96.90;;;;;;5022328;28;20021;-65
2021/09/15 11:40:34;;;;;;;16.42;13.73;;;18.00;96.90;;;;;;5021869;28;20503;-64
2021/09/15 11:43:05;;;;;;;15.70;13.80;;;18.00;96.90;;;;;;5023250;28;20116;-65
2021/09/15 11:45:33;;;;;;;18.10;14.15;;;18.00;97.00;;;;;;5023151;28;20025;-65
2021/09/15 11:47:58;;;;;;;16.30;13.55;;;18.10;97.10;;;;;;5018393;28;20388;-65
2021/09/15 11:50:28;;;;;;;17.23;12.70;;;18.00;97.00;;;;;;5023736;28;20017;-65
2021/09/15 11:53:28;;;;;;;16.00;13.40;;;18.00;97.00;;;;;;5022719;28;20021;-64
2021/09/15 11:55:50;;;;;;;20.20;13.90;;;18.00;97.10;;;;;;5025295;28;20504;-65
2021/09/15 11:58:17;;;;;;;19.98;14.05;;;17.90;97.20;;;;;;5022680;28;20018;-65
2021/09/15 12:00:43;;;;;;;18.83;14.88;;;17.80;97.30;;;;;;5023635;28;20042;-64
2021/09/15 12:03:12;;;;;;;15.88;14.07;;;17.80;97.40;;;;;;5023220;28;20098;-65
2021/09/15 12:05:42;;;;;;;16.52;14.13;;;17.70;97.40;;;;;;5024398;28;20041;-65
2021/09/15 12:08:09;;;;;;;18.58;14.43;;;17.60;97.50;;;;;;5022889;28;20401;-65
2021/09/15 12:10:36;;;;;;;17.10;14.50;;;17.60;97.40;;;;;;5022338;28;20033;-65
2021/09/15 12:13:02;;;;;;;17.85;14.02;;;17.50;97.60;;;;;;5022398;28;20037;-65
2021/09/15 12:15:28;;;;;;;17.88;14.77;;;17.50;97.70;;;;;;5026613;28;20017;-65
2021/09/15 12:17:59;;;;;;;20.58;16.23;;;17.40;97.50;;;;;;5021989;28;20026;-65
2021/09/15 12:20:57;;;;;;;23.48;16.13;;;17.40;97.80;;;;;;5025478;28;20052;-65
2021/09/15 12:23:32;;;;;;;22.80;16.67;;;17.50;98.00;;;;;;4989559;28;20123;-65
2021/09/15 12:26:02;;;;;;;24.63;16.63;;;17.40;98.10;;;;;;5026460;28;20056;-65
2021/09/15 12:28:30;;;;;;;23.58;16.70;;;17.50;98.20;;;;;;5023670;28;20048;-65
2021/09/15 12:30:57;;;;;;;24.35;16.95;;;17.50;98.20;;;;;;5023515;28;20393;-65
2021/09/15 12:33:25;;;;;;;21.27;16.95;;;17.40;98.20;;;;;;5021128;28;20030;-65
2021/09/15 12:36:07;;;;;;;30.05;17.98;;;17.40;98.30;;;;;;5016123;28;20037;-65
2021/09/15 12:38:43;;;;;;;21.42;17.05;;;17.50;98.30;;;;;;5023097;28;20026;-65
2021/09/15 12:41:09;;;;;;;24.73;18.63;;;17.40;98.30;;;;;;5020353;28;20025;-65